sensor_id;sensor_type;location;lat;lon;timestamp;pressure;altitude;pressure_sealevel;temperature;humidity
41250;BME280;26984;59.928;30.306;2022-09-17T00:00:45;98793.81;;;11.12;100.00
41250;BME280;26984;59.928;30.306;2022-09-17T00:03:13;98794.09;;;11.11;100.00
41250;BME280;26984;59.928;30.306;2022-09-17T00:05:40;98792.19;;;11.11;100.00
41250;BME280;26984;59.928;30.306;2022-09-17T00:08:09;98797.09;;;11.24;100.00
41250;BME280;26984;59.928;30.306;2022-09-17T00:10:37;98803.25;;;11.20;100.00
41250;BME280;26984;59.928;30.306;2022-09-17T00:13:07;98796.53;;;11.22;100.00
41250;BME280;26984;59.928;30.306;2022-09-17T00:15:38;98790.88;;;11.24;100.00
41250;BME280;26984;59.928;30.306;2022-09-17T00:18:06;98788.97;;;11.19;100.00
41250;BME280;26984;59.928;30.306;2022-09-17T00:20:36;98793.03;;;11.22;100.00
41250;BME280;26984;59.928;30.306;2022-09-17T00:23:04;98792.47;;;11.20;100.00
41250;BME280;26984;59.928;30.306;2022-09-17T00:25:31;98786.28;;;11.19;100.00
41250;BME280;26984;59.928;30.306;2022-09-17T00:27:59;98787.63;;;11.17;100.00
41250;BME280;26984;59.928;30.306;2022-09-17T00:30:28;98791.16;;;11.17;100.00
41250;BME280;26984;59.928;30.306;2022-09-17T00:32:55;98791.41;;;11.16;100.00
41250;BME280;26984;59.928;30.306;2022-09-17T00:35:23;98792.22;;;11.21;100.00
41250;BME280;26984;59.928;30.306;2022-09-17T00:37:50;98793.03;;;11.22;100.00
41250;BME280;26984;59.928;30.306;2022-09-17T00:40:17;98792.22;;;11.21;100.00
41250;BME280;26984;59.928;30.306;2022-09-17T00:42:45;98782.53;;;11.25;100.00
41250;BME280;26984;59.928;30.306;2022-09-17T00:45:13;98788.72;;;11.26;100.00
41250;BME280;26984;59.928;30.306;2022-09-17T00:47:42;98793.56;;;11.24;100.00
41250;BME280;26984;59.928;30.306;2022-09-17T00:50:12;98797.63;;;11.26;100.00
41250;BME280;26984;59.928;30.306;2022-09-17T00:52:45;98795.19;;;11.20;100.00
41250;BME280;26984;59.928;30.306;2022-09-17T00:55:18;98794.38;;;11.14;100.00
41250;BME280;26984;59.928;30.306;2022-09-17T00:57:46;98788.41;;;11.07;100.00
41250;BME280;26984;59.928;30.306;2022-09-17T01:00:15;98790.84;;;11.03;100.00
41250;BME280;26984;59.928;30.306;2022-09-17T01:02:44;98782.16;;;10.91;100.00
41250;BME280;26984;59.928;30.306;2022-09-17T01:05:11;98782.13;;;10.86;100.00
41250;BME280;26984;59.928;30.306;2022-09-17T01:07:53;98776.44;;;10.77;100.00
41250;BME280;26984;59.928;30.306;2022-09-17T01:10:29;98781.28;;;10.81;100.00
41250;BME280;26984;59.928;30.306;2022-09-17T01:13:05;98787.75;;;10.79;100.00
41250;BME280;26984;59.928;30.306;2022-09-17T01:15:39;98779.97;;;10.78;100.00
41250;BME280;26984;59.928;30.306;2022-09-17T01:18:15;98787.47;;;10.76;100.00
41250;BME280;26984;59.928;30.306;2022-09-17T01:23:43;98776.69;;;10.71;100.00
41250;BME280;26984;59.928;30.306;2022-09-17T01:26:24;98765.09;;;10.70;100.00
41250;BME280;26984;59.928;30.306;2022-09-17T01:28:57;98776.41;;;10.67;100.00
41250;BME280;26984;59.928;30.306;2022-09-17T01:31:30;98767.25;;;10.73;100.00
41250;BME280;26984;59.928;30.306;2022-09-17T01:34:02;98775.31;;;10.68;100.00
41250;BME280;26984;59.928;30.306;2022-09-17T01:36:38;98776.41;;;10.67;100.00
41250;BME280;26984;59.928;30.306;2022-09-17T01:39:11;98778.03;;;10.68;100.00
41250;BME280;26984;59.928;30.306;2022-09-17T01:41:42;98779.09;;;10.67;100.00
41250;BME280;26984;59.928;30.306;2022-09-17T01:44:13;98772.34;;;10.70;100.00
41250;BME280;26984;59.928;30.306;2022-09-17T01:46:44;98767.53;;;10.72;100.00
41250;BME280;26984;59.928;30.306;2022-09-17T01:49:13;98767.56;;;10.82;100.00
41250;BME280;26984;59.928;30.306;2022-09-17T01:51:42;98769.44;;;10.76;100.00
41250;BME280;26984;59.928;30.306;2022-09-17T01:54:12;98762.72;;;10.79;100.00
41250;BME280;26984;59.928;30.306;2022-09-17T01:56:43;98760.53;;;10.76;100.00
41250;BME280;26984;59.928;30.306;2022-09-17T01:59:13;98757.84;;;10.76;100.00
41250;BME280;26984;59.928;30.306;2022-09-17T02:01:44;98760.25;;;10.77;100.00
41250;BME280;26984;59.928;30.306;2022-09-17T02:04:14;98758.41;;;10.78;100.00
41250;BME280;26984;59.928;30.306;2022-09-17T02:06:45;98756.75;;;10.77;100.00
41250;BME280;26984;59.928;30.306;2022-09-17T02:09:15;98754.63;;;10.79;100.00
41250;BME280;26984;59.928;30.306;2022-09-17T02:11:44;98749.25;;;10.79;100.00
41250;BME280;26984;59.928;30.306;2022-09-17T02:14:14;98742.50;;;10.76;100.00
41250;BME280;26984;59.928;30.306;2022-09-17T02:16:46;98751.09;;;10.73;100.00
41250;BME280;26984;59.928;30.306;2022-09-17T02:19:17;98748.69;;;10.77;100.00
41250;BME280;26984;59.928;30.306;2022-09-17T02:21:47;98748.16;;;10.80;100.00
41250;BME280;26984;59.928;30.306;2022-09-17T02:24:18;98740.88;;;10.81;100.00
41250;BME280;26984;59.928;30.306;2022-09-17T02:26:49;98744.94;;;10.78;100.00
41250;BME280;26984;59.928;30.306;2022-09-17T02:29:18;98741.69;;;10.81;100.00
41250;BME280;26984;59.928;30.306;2022-09-17T02:31:49;98732.53;;;10.77;100.00
41250;BME280;26984;59.928;30.306;2022-09-17T02:34:17;98740.06;;;10.75;100.00
41250;BME280;26984;59.928;30.306;2022-09-17T02:36:45;98742.78;;;10.80;100.00
41250;BME280;26984;59.928;30.306;2022-09-17T02:39:12;98738.22;;;10.86;100.00
41250;BME280;26984;59.928;30.306;2022-09-17T02:41:43;98733.88;;;10.79;100.00
41250;BME280;26984;59.928;30.306;2022-09-17T02:44:15;98736.06;;;10.83;100.00
41250;BME280;26984;59.928;30.306;2022-09-17T02:46:55;98741.44;;;10.83;100.00
41250;BME280;26984;59.928;30.306;2022-09-17T02:49:33;98747.34;;;10.79;100.00
41250;BME280;26984;59.928;30.306;2022-09-17T02:52:06;98740.63;;;10.82;100.00
41250;BME280;26984;59.928;30.306;2022-09-17T02:54:40;98740.63;;;10.82;100.00
41250;BME280;26984;59.928;30.306;2022-09-17T02:57:12;98739.28;;;10.85;100.00
41250;BME280;26984;59.928;30.306;2022-09-17T02:59:46;98739.00;;;10.81;100.00
41250;BME280;26984;59.928;30.306;2022-09-17T03:02:18;98745.47;;;10.80;100.00
41250;BME280;26984;59.928;30.306;2022-09-17T03:04:48;98737.38;;;10.80;100.00
41250;BME280;26984;59.928;30.306;2022-09-17T03:07:16;98745.75;;;10.78;100.00
41250;BME280;26984;59.928;30.306;2022-09-17T03:09:44;98743.59;;;10.81;100.00
41250;BME280;26984;59.928;30.306;2022-09-17T03:12:12;98740.88;;;10.81;100.00
41250;BME280;26984;59.928;30.306;2022-09-17T03:14:40;98738.19;;;10.81;100.00
41250;BME280;26984;59.928;30.306;2022-09-17T03:17:08;98732.84;;;10.91;100.00
41250;BME280;26984;59.928;30.306;2022-09-17T03:19:38;98738.47;;;10.84;100.00
41250;BME280;26984;59.928;30.306;2022-09-17T03:22:06;98733.38;;;10.88;100.00
41250;BME280;26984;59.928;30.306;2022-09-17T03:24:33;98735.81;;;10.89;100.00
41250;BME280;26984;59.928;30.306;2022-09-17T03:27:00;98737.72;;;10.99;100.00
41250;BME280;26984;59.928;30.306;2022-09-17T03:29:28;98740.41;;;10.99;100.00
41250;BME280;26984;59.928;30.306;2022-09-17T03:31:55;98741.50;;;10.98;100.00
41250;BME280;26984;59.928;30.306;2022-09-17T03:34:23;98738.53;;;11.05;100.00
41250;BME280;26984;59.928;30.306;2022-09-17T03:36:52;98742.84;;;11.00;100.00
41250;BME280;26984;59.928;30.306;2022-09-17T03:39:19;98743.38;;;10.97;100.00
41250;BME280;26984;59.928;30.306;2022-09-17T03:41:46;98736.63;;;10.95;100.00
41250;BME280;26984;59.928;30.306;2022-09-17T03:44:14;98742.84;;;11.00;100.00
41250;BME280;26984;59.928;30.306;2022-09-17T03:46:43;98732.06;;;11.06;100.00
41250;BME280;26984;59.928;30.306;2022-09-17T03:49:11;98729.13;;;11.12;100.00
41250;BME280;26984;59.928;30.306;2022-09-17T03:51:38;98724.81;;;11.16;100.00
41250;BME280;26984;59.928;30.306;2022-09-17T03:54:07;98728.03;;;11.13;100.00
41250;BME280;26984;59.928;30.306;2022-09-17T03:56:34;98726.75;;;11.21;100.00
41250;BME280;26984;59.928;30.306;2022-09-17T03:59:01;98723.75;;;11.27;100.00
41250;BME280;26984;59.928;30.306;2022-09-17T04:01:29;98721.63;;;11.30;100.00
41250;BME280;26984;59.928;30.306;2022-09-17T04:03:56;98721.06;;;11.27;100.00
41250;BME280;26984;59.928;30.306;2022-09-17T04:06:24;98719.19;;;11.33;100.00
41250;BME280;26984;59.928;30.306;2022-09-17T04:08:51;98721.63;;;11.30;100.00
41250;BME280;26984;59.928;30.306;2022-09-17T04:11:20;98718.38;;;11.38;100.00
41250;BME280;26984;59.928;30.306;2022-09-17T04:13:48;98718.38;;;11.38;100.00
41250;BME280;26984;59.928;30.306;2022-09-17T04:16:15;98710.84;;;11.40;100.00
41250;BME280;26984;59.928;30.306;2022-09-17T04:18:42;98715.72;;;11.43;100.00
41250;BME280;26984;59.928;30.306;2022-09-17T04:21:09;98713.00;;;11.48;100.00
41250;BME280;26984;59.928;30.306;2022-09-17T04:23:37;98712.75;;;11.49;100.00
41250;BME280;26984;59.928;30.306;2022-09-17T04:26:04;98705.47;;;11.50;100.00
41250;BME280;26984;59.928;30.306;2022-09-17T04:28:33;98700.31;;;11.48;100.00
41250;BME280;26984;59.928;30.306;2022-09-17T04:31:00;98710.06;;;11.49;100.00
41250;BME280;26984;59.928;30.306;2022-09-17T04:33:28;98714.09;;;11.52;100.00
41250;BME280;26984;59.928;30.306;2022-09-17T04:35:55;98712.47;;;11.51;100.00
41250;BME280;26984;59.928;30.306;2022-09-17T04:38:23;98712.19;;;11.47;100.00
41250;BME280;26984;59.928;30.306;2022-09-17T04:40:50;98704.41;;;11.46;100.00
41250;BME280;26984;59.928;30.306;2022-09-17T04:43:18;98715.19;;;11.46;100.00
41250;BME280;26984;59.928;30.306;2022-09-17T04:45:47;98714.34;;;11.45;100.00
41250;BME280;26984;59.928;30.306;2022-09-17T04:48:15;98718.69;;;11.46;100.00
41250;BME280;26984;59.928;30.306;2022-09-17T04:50:43;98717.59;;;11.42;100.00
41250;BME280;26984;59.928;30.306;2022-09-17T04:53:10;98706.00;;;11.47;100.00
41250;BME280;26984;59.928;30.306;2022-09-17T04:55:38;98716.25;;;11.50;100.00
41250;BME280;26984;59.928;30.306;2022-09-17T04:58:05;98710.31;;;11.58;100.00
41250;BME280;26984;59.928;30.306;2022-09-17T05:00:33;98715.97;;;11.62;100.00
41250;BME280;26984;59.928;30.306;2022-09-17T05:03:02;98711.69;;;11.71;100.00
41250;BME280;26984;59.928;30.306;2022-09-17T05:05:29;98712.22;;;11.78;100.00
41250;BME280;26984;59.928;30.306;2022-09-17T05:07:56;98710.88;;;11.86;100.00
41250;BME280;26984;59.928;30.306;2022-09-17T05:10:24;98713.03;;;11.94;100.00
41250;BME280;26984;59.928;30.306;2022-09-17T05:12:52;98707.63;;;11.99;100.00
41250;BME280;26984;59.928;30.306;2022-09-17T05:15:20;98707.63;;;11.99;100.00
41250;BME280;26984;59.928;30.306;2022-09-17T05:17:48;98710.88;;;12.06;100.00
41250;BME280;26984;59.928;30.306;2022-09-17T05:20:17;98709.22;;;12.15;100.00
41250;BME280;26984;59.928;30.306;2022-09-17T05:22:45;98711.34;;;12.23;100.00
41250;BME280;26984;59.928;30.306;2022-09-17T05:25:13;98708.38;;;12.20;100.00
41250;BME280;26984;59.928;30.306;2022-09-17T05:27:41;98715.69;;;12.25;100.00
41250;BME280;26984;59.928;30.306;2022-09-17T05:30:09;98713.78;;;12.25;100.00
41250;BME280;26984;59.928;30.306;2022-09-17T05:32:38;98712.69;;;12.31;100.00
41250;BME280;26984;59.928;30.306;2022-09-17T05:35:05;98711.84;;;12.31;100.00
41250;BME280;26984;59.928;30.306;2022-09-17T05:37:34;98716.47;;;12.20;100.00
41250;BME280;26984;59.928;30.306;2022-09-17T05:40:02;98710.03;;;12.11;100.00
41250;BME280;26984;59.928;30.306;2022-09-17T05:42:31;98719.47;;;12.08;100.00
41250;BME280;26984;59.928;30.306;2022-09-17T05:44:58;98711.66;;;12.12;100.00
41250;BME280;26984;59.928;30.306;2022-09-17T05:47:25;98712.47;;;12.17;100.00
41250;BME280;26984;59.928;30.306;2022-09-17T05:49:53;98706.19;;;12.27;100.00
41250;BME280;26984;59.928;30.306;2022-09-17T05:52:20;98712.13;;;12.34;100.00
41250;BME280;26984;59.928;30.306;2022-09-17T05:54:49;98712.38;;;12.43;100.00
41250;BME280;26984;59.928;30.306;2022-09-17T05:57:16;98707.16;;;12.62;100.00
41250;BME280;26984;59.928;30.306;2022-09-17T05:59:45;98703.03;;;12.80;100.00
41250;BME280;26984;59.928;30.306;2022-09-17T06:02:12;98704.09;;;12.89;100.00
41250;BME280;26984;59.928;30.306;2022-09-17T06:04:40;98714.06;;;12.93;100.00
41250;BME280;26984;59.928;30.306;2022-09-17T06:07:07;98709.75;;;12.92;100.00
41250;BME280;26984;59.928;30.306;2022-09-17T06:09:35;98710.53;;;12.93;100.00
41250;BME280;26984;59.928;30.306;2022-09-17T06:12:05;98712.19;;;12.89;100.00
41250;BME280;26984;59.928;30.306;2022-09-17T06:14:32;98716.53;;;12.85;100.00
41250;BME280;26984;59.928;30.306;2022-09-17T06:17:00;98712.75;;;12.86;100.00
41250;BME280;26984;59.928;30.306;2022-09-17T06:19:27;98714.94;;;12.79;100.00
41250;BME280;26984;59.928;30.306;2022-09-17T06:21:54;98712.25;;;12.79;100.00
41250;BME280;26984;59.928;30.306;2022-09-17T06:24:21;98714.66;;;12.80;100.00
41250;BME280;26984;59.928;30.306;2022-09-17T06:26:50;98717.91;;;12.82;100.00
41250;BME280;26984;59.928;30.306;2022-09-17T06:29:19;98718.75;;;12.78;100.00
41250;BME280;26984;59.928;30.306;2022-09-17T06:31:46;98717.84;;;12.87;100.00
41250;BME280;26984;59.928;30.306;2022-09-17T06:34:14;98720.56;;;12.92;100.00
41250;BME280;26984;59.928;30.306;2022-09-17T06:36:41;98715.41;;;12.91;100.00
41250;BME280;26984;59.928;30.306;2022-09-17T06:39:09;98729.72;;;12.97;100.00
41250;BME280;26984;59.928;30.306;2022-09-17T06:41:37;98718.06;;;13.06;100.00
41250;BME280;26984;59.928;30.306;2022-09-17T06:44:06;98726.66;;;13.13;100.00
41250;BME280;26984;59.928;30.306;2022-09-17T06:46:35;98720.34;;;13.23;100.00
41250;BME280;26984;59.928;30.306;2022-09-17T06:49:03;98720.09;;;13.30;100.00
41250;BME280;26984;59.928;30.306;2022-09-17T06:51:30;98726.03;;;13.32;100.00
41250;BME280;26984;59.928;30.306;2022-09-17T06:53:57;98726.03;;;13.32;100.00
41250;BME280;26984;59.928;30.306;2022-09-17T06:56:25;98720.88;;;13.35;100.00
41250;BME280;26984;59.928;30.306;2022-09-17T06:58:52;98725.72;;;13.38;100.00
41250;BME280;26984;59.928;30.306;2022-09-17T07:01:20;98724.31;;;13.46;100.00
41250;BME280;26984;59.928;30.306;2022-09-17T07:03:48;98722.03;;;13.58;100.00
41250;BME280;26984;59.928;30.306;2022-09-17T07:06:16;98723.59;;;13.70;100.00
41250;BME280;26984;59.928;30.306;2022-09-17T07:08:43;98722.75;;;13.74;100.00
41250;BME280;26984;59.928;30.306;2022-09-17T07:11:13;98725.13;;;13.81;100.00
41250;BME280;26984;59.928;30.306;2022-09-17T07:13:40;98722.66;;;13.84;100.00
41250;BME280;26984;59.928;30.306;2022-09-17T07:16:08;98727.78;;;13.86;100.00
41250;BME280;26984;59.928;30.306;2022-09-17T07:18:35;98723.16;;;13.86;100.00
41250;BME280;26984;59.928;30.306;2022-09-17T07:21:05;98719.88;;;13.95;100.00
41250;BME280;26984;59.928;30.306;2022-09-17T07:23:33;98726.09;;;13.90;100.00
41250;BME280;26984;59.928;30.306;2022-09-17T07:26:02;98724.19;;;13.96;100.00
41250;BME280;26984;59.928;30.306;2022-09-17T07:28:30;98734.19;;;13.95;100.00
41250;BME280;26984;59.928;30.306;2022-09-17T07:31:01;98726.69;;;13.87;100.00
41250;BME280;26984;59.928;30.306;2022-09-17T07:33:28;98731.59;;;13.80;100.00
41250;BME280;26984;59.928;30.306;2022-09-17T07:35:56;98725.69;;;13.78;100.00
41250;BME280;26984;59.928;30.306;2022-09-17T07:38:25;98727.03;;;13.80;100.00
41250;BME280;26984;59.928;30.306;2022-09-17T07:40:54;98725.59;;;13.88;100.00
41250;BME280;26984;59.928;30.306;2022-09-17T07:43:23;98719.28;;;13.98;100.00
41250;BME280;26984;59.928;30.306;2022-09-17T07:45:50;98715.63;;;14.12;100.00
41250;BME280;26984;59.928;30.306;2022-09-17T07:48:18;98725.44;;;14.32;100.00
41250;BME280;26984;59.928;30.306;2022-09-17T07:50:45;98720.84;;;14.57;100.00
41250;BME280;26984;59.928;30.306;2022-09-17T07:53:13;98729.78;;;14.81;100.00
41250;BME280;26984;59.928;30.306;2022-09-17T07:55:41;98728.09;;;15.04;100.00
41250;BME280;26984;59.928;30.306;2022-09-17T07:58:09;98731.34;;;15.25;100.00
41250;BME280;26984;59.928;30.306;2022-09-17T08:00:36;98724.38;;;15.38;100.00
41250;BME280;26984;59.928;30.306;2022-09-17T08:03:03;98729.41;;;15.64;100.00
41250;BME280;26984;59.928;30.306;2022-09-17T08:05:31;98722.50;;;15.90;100.00
41250;BME280;26984;59.928;30.306;2022-09-17T08:07:59;98726.59;;;16.34;100.00
41250;BME280;26984;59.928;30.306;2022-09-17T08:10:26;98735.97;;;16.69;100.00
41250;BME280;26984;59.928;30.306;2022-09-17T08:12:56;98731.66;;;16.82;100.00
41250;BME280;26984;59.928;30.306;2022-09-17T08:15:24;98735.28;;;16.91;100.00
41250;BME280;26984;59.928;30.306;2022-09-17T08:17:52;98721.28;;;16.84;99.92
41250;BME280;26984;59.928;30.306;2022-09-17T08:20:22;98731.94;;;16.67;100.00
41250;BME280;26984;59.928;30.306;2022-09-17T08:22:56;98731.34;;;16.56;100.00
41250;BME280;26984;59.928;30.306;2022-09-17T08:25:24;98730.22;;;16.30;100.00
41250;BME280;26984;59.928;30.306;2022-09-17T08:27:52;98729.47;;;16.10;100.00
41250;BME280;26984;59.928;30.306;2022-09-17T08:30:20;98735.09;;;16.00;100.00
41250;BME280;26984;59.928;30.306;2022-09-17T08:32:48;98726.19;;;15.80;100.00
41250;BME280;26984;59.928;30.306;2022-09-17T08:35:15;98721.47;;;15.72;100.00
41250;BME280;26984;59.928;30.306;2022-09-17T08:37:43;98726.72;;;15.96;100.00
41250;BME280;26984;59.928;30.306;2022-09-17T08:40:12;98725.03;;;16.00;100.00
41250;BME280;26984;59.928;30.306;2022-09-17T08:42:46;98726.44;;;15.98;100.00
41250;BME280;26984;59.928;30.306;2022-09-17T08:45:16;98731.38;;;15.96;99.85
41250;BME280;26984;59.928;30.306;2022-09-17T08:47:46;98726.09;;;15.86;95.82
41250;BME280;26984;59.928;30.306;2022-09-17T08:50:14;98729.34;;;15.50;96.72
41250;BME280;26984;59.928;30.306;2022-09-17T08:55:34;98732.09;;;15.12;97.88
41250;BME280;26984;59.928;30.306;2022-09-17T08:58:06;98735.44;;;15.04;99.56
41250;BME280;26984;59.928;30.306;2022-09-17T09:00:40;98734.81;;;15.12;98.53
41250;BME280;26984;59.928;30.306;2022-09-17T09:03:17;98735.75;;;15.02;98.75
41250;BME280;26984;59.928;30.306;2022-09-17T09:05:48;98735.16;;;15.05;100.00
41250;BME280;26984;59.928;30.306;2022-09-17T09:08:18;98728.50;;;15.17;100.00
41250;BME280;26984;59.928;30.306;2022-09-17T09:10:48;98735.91;;;15.30;99.38
41250;BME280;26984;59.928;30.306;2022-09-17T09:13:18;98733.03;;;15.21;99.47
41250;BME280;26984;59.928;30.306;2022-09-17T09:15:48;98736.69;;;15.12;100.00
41250;BME280;26984;59.928;30.306;2022-09-17T09:18:20;98732.72;;;15.04;100.00
41250;BME280;26984;59.928;30.306;2022-09-17T09:20:49;98728.53;;;14.93;100.00
41250;BME280;26984;59.928;30.306;2022-09-17T09:23:19;98741.38;;;14.87;100.00
41250;BME280;26984;59.928;30.306;2022-09-17T09:26:05;98737.59;;;14.83;100.00
41250;BME280;26984;59.928;30.306;2022-09-17T09:28:41;98735.34;;;14.90;100.00
41250;BME280;26984;59.928;30.306;2022-09-17T09:31:15;98742.22;;;14.82;100.00
41250;BME280;26984;59.928;30.306;2022-09-17T09:33:48;98746.19;;;14.90;100.00
41250;BME280;26984;59.928;30.306;2022-09-17T09:36:17;98739.84;;;15.00;100.00
41250;BME280;26984;59.928;30.306;2022-09-17T09:38:48;98739.13;;;14.94;100.00
41250;BME280;26984;59.928;30.306;2022-09-17T09:41:19;98739.69;;;14.91;100.00
41250;BME280;26984;59.928;30.306;2022-09-17T09:43:50;98733.16;;;14.92;100.00
41250;BME280;26984;59.928;30.306;2022-09-17T09:46:23;98742.34;;;14.72;100.00
41250;BME280;26984;59.928;30.306;2022-09-17T09:48:58;98743.97;;;14.73;100.00
41250;BME280;26984;59.928;30.306;2022-09-17T09:51:33;98753.66;;;14.55;100.00
41250;BME280;26984;59.928;30.306;2022-09-17T09:54:11;98749.56;;;14.58;100.00
41250;BME280;26984;59.928;30.306;2022-09-17T09:56:46;98751.13;;;14.64;100.00
41250;BME280;26984;59.928;30.306;2022-09-17T09:59:15;98752.72;;;14.65;100.00
41250;BME280;26984;59.928;30.306;2022-09-17T10:01:44;98752.72;;;14.65;100.00
41250;BME280;26984;59.928;30.306;2022-09-17T10:04:18;98759.91;;;14.80;100.00
41250;BME280;26984;59.928;30.306;2022-09-17T10:06:46;98755.75;;;15.06;100.00
41250;BME280;26984;59.928;30.306;2022-09-17T10:09:14;98766.78;;;15.34;100.00
41250;BME280;26984;59.928;30.306;2022-09-17T10:11:42;98769.69;;;15.56;100.00
41250;BME280;26984;59.928;30.306;2022-09-17T10:14:25;98764.41;;;15.65;100.00
41250;BME280;26984;59.928;30.306;2022-09-17T10:17:09;98764.50;;;15.60;100.00
41250;BME280;26984;59.928;30.306;2022-09-17T10:19:38;98773.66;;;15.45;100.00
41250;BME280;26984;59.928;30.306;2022-09-17T10:22:18;98767.81;;;15.19;100.00
41250;BME280;26984;59.928;30.306;2022-09-17T10:24:46;98771.03;;;14.97;100.00
41250;BME280;26984;59.928;30.306;2022-09-17T10:27:14;98772.59;;;15.03;100.00
41250;BME280;26984;59.928;30.306;2022-09-17T10:29:43;98769.63;;;15.24;100.00
41250;BME280;26984;59.928;30.306;2022-09-17T10:32:13;98767.94;;;15.28;100.00
41250;BME280;26984;59.928;30.306;2022-09-17T10:34:57;98764.63;;;15.12;100.00
41250;BME280;26984;59.928;30.306;2022-09-17T10:37:32;98772.22;;;14.91;100.00
41250;BME280;26984;59.928;30.306;2022-09-17T10:40:00;98774.94;;;14.67;100.00
41250;BME280;26984;59.928;30.306;2022-09-17T10:42:28;98777.03;;;14.46;100.00
41250;BME280;26984;59.928;30.306;2022-09-17T10:44:56;98787.00;;;13.93;100.00
41250;BME280;26984;59.928;30.306;2022-09-17T10:47:26;98792.38;;;13.63;100.00
41250;BME280;26984;59.928;30.306;2022-09-17T10:49:56;98791.19;;;13.35;100.00
41250;BME280;26984;59.928;30.306;2022-09-17T10:52:27;98802.56;;;13.32;100.00
41250;BME280;26984;59.928;30.306;2022-09-17T10:57:51;98808.28;;;13.15;100.00
41250;BME280;26984;59.928;30.306;2022-09-17T11:00:21;98816.69;;;13.09;100.00
41250;BME280;26984;59.928;30.306;2022-09-17T11:02:58;98804.25;;;13.13;100.00
41250;BME280;26984;59.928;30.306;2022-09-17T11:05:52;98809.66;;;13.08;100.00
41250;BME280;26984;59.928;30.306;2022-09-17T11:08:22;98801.81;;;13.16;100.00
41250;BME280;26984;59.928;30.306;2022-09-17T11:10:53;98799.34;;;13.20;100.00
41250;BME280;26984;59.928;30.306;2022-09-17T11:13:26;98801.47;;;13.33;100.00
41250;BME280;26984;59.928;30.306;2022-09-17T11:16:05;98802.97;;;13.55;100.00
41250;BME280;26984;59.928;30.306;2022-09-17T11:18:38;98800.69;;;13.72;100.00
41250;BME280;26984;59.928;30.306;2022-09-17T11:21:12;98811.38;;;13.93;100.00
41250;BME280;26984;59.928;30.306;2022-09-17T11:23:53;98811.22;;;14.08;100.00
41250;BME280;26984;59.928;30.306;2022-09-17T11:26:28;98808.44;;;14.18;100.00
41250;BME280;26984;59.928;30.306;2022-09-17T11:29:01;98811.38;;;14.27;100.00
41250;BME280;26984;59.928;30.306;2022-09-17T11:31:33;98813.28;;;14.21;100.00
41250;BME280;26984;59.928;30.306;2022-09-17T11:34:16;98812.72;;;14.24;100.00
41250;BME280;26984;59.928;30.306;2022-09-17T11:36:50;98811.94;;;14.24;100.00
41250;BME280;26984;59.928;30.306;2022-09-17T11:39:21;98812.09;;;14.32;100.00
41250;BME280;26984;59.928;30.306;2022-09-17T11:41:50;98807.56;;;14.57;100.00
41250;BME280;26984;59.928;30.306;2022-09-17T11:44:21;98801.75;;;14.69;100.00
41250;BME280;26984;59.928;30.306;2022-09-17T11:46:51;98787.38;;;14.92;100.00
41250;BME280;26984;59.928;30.306;2022-09-17T11:49:21;98796.84;;;15.38;100.00
41250;BME280;26984;59.928;30.306;2022-09-17T11:51:53;98809.25;;;15.63;100.00
41250;BME280;26984;59.928;30.306;2022-09-17T11:54:22;98794.88;;;15.81;100.00
41250;BME280;26984;59.928;30.306;2022-09-17T11:56:51;98808.47;;;16.14;100.00
41250;BME280;26984;59.928;30.306;2022-09-17T11:59:22;98812.47;;;16.02;100.00
41250;BME280;26984;59.928;30.306;2022-09-17T12:01:51;98815.00;;;15.80;100.00
41250;BME280;26984;59.928;30.306;2022-09-17T12:04:31;98812.75;;;15.44;100.00
41250;BME280;26984;59.928;30.306;2022-09-17T12:07:03;98818.69;;;15.27;100.00
41250;BME280;26984;59.928;30.306;2022-09-17T12:09:34;98832.38;;;15.17;100.00
41250;BME280;26984;59.928;30.306;2022-09-17T12:12:04;98838.25;;;15.24;100.00
41250;BME280;26984;59.928;30.306;2022-09-17T12:14:37;98843.34;;;15.07;100.00
41250;BME280;26984;59.928;30.306;2022-09-17T12:17:07;98856.06;;;14.24;100.00
41250;BME280;26984;59.928;30.306;2022-09-17T12:19:39;98852.00;;;13.43;100.00
41250;BME280;26984;59.928;30.306;2022-09-17T12:22:10;98855.59;;;13.18;100.00
41250;BME280;26984;59.928;30.306;2022-09-17T12:24:40;98864.03;;;13.01;100.00
41250;BME280;26984;59.928;30.306;2022-09-17T12:27:09;98874.13;;;12.70;100.00
41250;BME280;26984;59.928;30.306;2022-09-17T12:29:51;98870.06;;;12.67;100.00
41250;BME280;26984;59.928;30.306;2022-09-17T12:32:32;98869.78;;;12.59;100.00
41250;BME280;26984;59.928;30.306;2022-09-17T12:35:02;98877.38;;;12.57;100.00
41250;BME280;26984;59.928;30.306;2022-09-17T12:37:34;98880.06;;;12.41;100.00
41250;BME280;26984;59.928;30.306;2022-09-17T12:40:07;98878.72;;;12.34;100.00
41250;BME280;26984;59.928;30.306;2022-09-17T12:42:41;98874.94;;;12.40;100.00
41250;BME280;26984;59.928;30.306;2022-09-17T12:45:19;98876.31;;;12.32;100.00
41250;BME280;26984;59.928;30.306;2022-09-17T12:47:54;98862.25;;;12.40;100.00
41250;BME280;26984;59.928;30.306;2022-09-17T12:50:27;98869.50;;;12.76;100.00
41250;BME280;26984;59.928;30.306;2022-09-17T12:53:05;98872.66;;;13.08;100.00
41250;BME280;26984;59.928;30.306;2022-09-17T12:55:42;98878.50;;;13.46;100.00
41250;BME280;26984;59.928;30.306;2022-09-17T12:58:16;98886.56;;;13.51;100.00
41250;BME280;26984;59.928;30.306;2022-09-17T13:00:48;98893.38;;;13.44;100.00
41250;BME280;26984;59.928;30.306;2022-09-17T13:03:18;98893.66;;;13.37;100.00